createdAt,value
2023-04-11T00:01:55.198Z,14.02
2023-04-11T00:04:22.860Z,14.50
2023-04-11T00:06:50.356Z,12.30
2023-04-11T00:09:17.766Z,12.05
2023-04-11T00:11:45.071Z,10.13
2023-04-11T00:14:12.929Z,10.95
2023-04-11T00:16:41.534Z,17.70
2023-04-11T00:19:11.966Z,11.70
2023-04-11T00:21:41.790Z,15.40
2023-04-11T00:24:09.170Z,16.23
2023-04-11T00:26:36.545Z,14.27
2023-04-11T00:29:04.026Z,17.13
2023-04-11T00:31:32.722Z,12.10
2023-04-11T00:34:00.111Z,15.02
2023-04-11T00:36:27.652Z,12.32
2023-04-11T00:38:55.430Z,15.00
2023-04-11T00:41:24.204Z,15.98
2023-04-11T00:43:52.016Z,15.40
2023-04-11T00:46:19.828Z,12.30
2023-04-11T00:48:47.970Z,14.63
2023-04-11T00:51:16.077Z,15.85
2023-04-11T00:53:45.620Z,17.70
2023-04-11T00:56:13.767Z,10.95
2023-04-11T00:58:42.483Z,19.73
2023-04-11T01:01:09.832Z,13.20
2023-04-11T01:03:39.136Z,17.77
2023-04-11T01:06:09.521Z,16.23
2023-04-11T01:08:38.646Z,15.20
2023-04-11T01:11:08.004Z,15.95
2023-04-11T01:13:39.751Z,13.50
2023-04-11T01:18:36.405Z,17.80
2023-04-11T01:21:04.591Z,16.58
2023-04-11T01:23:32.745Z,16.27
2023-04-11T01:26:00.277Z,21.35
2023-04-11T01:28:27.749Z,12.65
2023-04-11T01:30:55.212Z,15.95
2023-04-11T01:33:22.592Z,14.80
2023-04-11T01:35:50.472Z,19.55
2023-04-11T01:38:18.067Z,12.52
2023-04-11T01:40:46.110Z,16.35
2023-04-11T01:43:13.519Z,14.57
2023-04-11T01:45:41.218Z,11.18
2023-04-11T01:48:08.839Z,13.75
2023-04-11T01:50:36.179Z,12.07
2023-04-11T01:53:04.481Z,13.50
2023-04-11T01:55:31.738Z,17.13
2023-04-11T01:57:59.460Z,13.73
2023-04-11T02:00:26.773Z,15.20
2023-04-11T02:02:54.349Z,12.30
2023-04-11T02:05:22.260Z,16.63
2023-04-11T02:07:49.532Z,24.23
2023-04-11T02:10:19.052Z,19.75
2023-04-11T02:12:46.507Z,16.42
2023-04-11T02:15:13.899Z,16.05
2023-04-11T02:17:45.600Z,20.40
2023-04-11T02:20:14.374Z,20.20
2023-04-11T02:22:42.351Z,12.27
2023-04-11T02:25:09.871Z,13.75
2023-04-11T02:27:37.196Z,18.40
2023-04-11T02:30:06.167Z,17.52
2023-04-11T02:32:34.928Z,26.73
2023-04-11T02:35:02.439Z,14.98
2023-04-11T02:37:30.520Z,22.27
2023-04-11T02:39:58.346Z,17.58
2023-04-11T02:42:25.759Z,14.07
2023-04-11T02:44:55.633Z,14.85
2023-04-11T02:47:27.299Z,26.58
2023-04-11T02:49:58.638Z,16.58
2023-04-11T02:52:33.661Z,17.08
2023-04-11T02:55:01.499Z,19.55
2023-04-11T02:57:28.948Z,15.73
2023-04-11T02:59:57.856Z,15.25
2023-04-11T03:02:33.990Z,14.07
2023-04-11T03:05:05.249Z,17.55
2023-04-11T03:07:38.522Z,15.25
2023-04-11T03:10:07.196Z,14.50
2023-04-11T03:12:35.088Z,15.77
2023-04-11T03:15:05.473Z,13.65
2023-04-11T03:17:34.085Z,12.45
2023-04-11T03:20:02.576Z,18.33
2023-04-11T03:22:31.226Z,20.60
2023-04-11T03:24:59.364Z,14.43
2023-04-11T03:27:27.076Z,20.70
2023-04-11T03:29:59.497Z,18.95
2023-04-11T03:32:39.475Z,13.23
2023-04-11T03:35:07.005Z,16.85
2023-04-11T03:37:36.368Z,13.75
2023-04-11T03:40:05.289Z,24.20
2023-04-11T03:42:32.712Z,14.05
2023-04-11T03:45:02.019Z,13.88
2023-04-11T03:47:30.359Z,14.20
2023-04-11T03:49:58.545Z,27.95
2023-04-11T03:52:26.712Z,22.27
2023-04-11T03:54:54.185Z,26.95
2023-04-11T03:57:26.876Z,19.88
2023-04-11T03:59:55.964Z,20.40
2023-04-11T04:02:24.080Z,14.00
2023-04-11T04:04:58.611Z,19.95
2023-04-11T04:07:31.786Z,16.52
2023-04-11T04:10:22.607Z,14.45
2023-04-11T04:12:53.613Z,16.95
2023-04-11T04:17:52.500Z,16.95
2023-04-11T04:20:28.419Z,24.00
2023-04-11T04:23:00.177Z,17.80
2023-04-11T04:25:42.257Z,19.67
2023-04-11T04:28:11.272Z,15.82
2023-04-11T04:30:40.328Z,15.18
2023-04-11T04:33:12.321Z,11.32
2023-04-11T04:35:44.021Z,14.15
2023-04-11T04:38:17.863Z,13.23
2023-04-11T04:40:57.409Z,15.38
2023-04-11T04:43:27.197Z,16.88
2023-04-11T04:46:13.189Z,15.38
2023-04-11T04:48:48.744Z,13.23
2023-04-11T04:51:16.078Z,14.00
2023-04-11T04:53:43.409Z,15.73
2023-04-11T04:56:12.568Z,14.25
2023-04-11T04:58:42.617Z,17.58
2023-04-11T05:01:13.263Z,21.35
2023-04-11T05:03:40.717Z,18.60
2023-04-11T05:06:14.103Z,26.30
2023-04-11T05:08:44.883Z,20.90
2023-04-11T05:11:13.550Z,17.65
2023-04-11T05:13:41.883Z,17.52
2023-04-11T05:16:17.502Z,23.67
2023-04-11T05:18:45.872Z,22.38
2023-04-11T05:21:14.546Z,24.27
2023-04-11T05:23:44.884Z,25.27
2023-04-11T05:26:12.273Z,21.73
2023-04-11T05:28:42.114Z,25.67
2023-04-11T05:31:14.099Z,28.98
2023-04-11T05:33:42.187Z,35.60
2023-04-11T05:36:14.173Z,33.92
2023-04-11T05:38:42.556Z,57.53
2023-04-11T05:41:11.057Z,60.15
2023-04-11T05:43:38.933Z,67.22
2023-04-11T05:46:07.879Z,47.33
2023-04-11T05:48:36.296Z,40.53
2023-04-11T05:51:04.427Z,20.58
2023-04-11T05:53:32.009Z,26.60
2023-04-11T05:56:01.256Z,18.85
2023-04-11T05:58:30.012Z,27.45
2023-04-11T06:01:00.859Z,21.67
2023-04-11T06:03:28.777Z,19.15
2023-04-11T06:05:56.457Z,17.58
2023-04-11T06:08:23.811Z,20.63
2023-04-11T06:10:51.150Z,24.65
2023-04-11T06:13:18.449Z,14.63
2023-04-11T06:15:46.045Z,16.60
2023-04-11T06:18:13.546Z,16.55
2023-04-11T06:20:40.882Z,22.67
2023-04-11T06:23:08.155Z,16.30
2023-04-11T06:25:35.728Z,17.67
2023-04-11T06:28:03.022Z,17.58
2023-04-11T06:30:30.918Z,19.05
2023-04-11T06:32:58.740Z,17.55
2023-04-11T06:35:26.105Z,21.60
2023-04-11T06:37:53.832Z,17.63
2023-04-11T06:40:21.324Z,15.55
2023-04-11T06:42:49.058Z,13.85
2023-04-11T06:45:16.814Z,18.02
2023-04-11T06:47:44.666Z,15.65
2023-04-11T06:50:12.682Z,15.05
2023-04-11T06:52:40.398Z,15.40
2023-04-11T06:55:08.462Z,13.88
2023-04-11T06:57:36.028Z,20.55
2023-04-11T07:00:06.986Z,23.80
2023-04-11T07:02:35.832Z,30.53
2023-04-11T07:05:03.545Z,20.92
2023-04-11T07:07:31.314Z,17.88
2023-04-11T07:09:58.782Z,19.77
2023-04-11T07:12:26.165Z,15.82
2023-04-11T07:14:54.092Z,14.63
2023-04-11T07:17:21.913Z,18.08
2023-04-11T07:19:49.720Z,13.55
2023-04-11T07:22:17.508Z,18.02
2023-04-11T07:24:46.668Z,19.70
2023-04-11T07:27:14.457Z,21.02
2023-04-11T07:29:41.812Z,19.52
2023-04-11T07:32:09.730Z,17.90
2023-04-11T07:34:38.400Z,23.80
2023-04-11T07:37:06.467Z,14.63
2023-04-11T07:39:33.970Z,47.40
2023-04-11T07:42:01.899Z,16.90
2023-04-11T07:44:29.683Z,14.55
2023-04-11T07:46:57.546Z,18.10
2023-04-11T07:49:25.006Z,15.43
2023-04-11T07:51:52.419Z,17.88
2023-04-11T07:54:19.720Z,13.20
2023-04-11T07:56:47.049Z,13.93
2023-04-11T07:59:15.955Z,17.98
2023-04-11T08:01:43.496Z,15.43
2023-04-11T08:04:11.619Z,14.95
2023-04-11T08:06:39.626Z,22.52
2023-04-11T08:09:07.401Z,16.65
2023-04-11T08:11:35.041Z,18.13
2023-04-11T08:14:02.304Z,17.75
2023-04-11T08:16:29.612Z,16.17
2023-04-11T08:18:57.432Z,21.67
2023-04-11T08:21:25.257Z,18.70
2023-04-11T08:23:52.601Z,13.60
2023-04-11T08:26:20.158Z,13.95
2023-04-11T08:28:47.421Z,13.80
2023-04-11T08:31:15.504Z,19.95
2023-04-11T08:33:43.229Z,14.63
2023-04-11T08:36:11.320Z,13.88
2023-04-11T08:38:40.799Z,17.67
2023-04-11T08:41:08.378Z,16.15
2023-04-11T08:43:38.842Z,14.43
2023-04-11T08:46:07.947Z,15.23
2023-04-11T08:48:36.272Z,17.85
2023-04-11T08:51:03.696Z,13.75
2023-04-11T08:53:33.865Z,17.67
2023-04-11T08:56:01.847Z,15.02
2023-04-11T08:58:29.443Z,16.10
2023-04-11T09:00:56.756Z,16.02
2023-04-11T09:03:24.175Z,14.50
2023-04-11T09:05:51.598Z,18.77
2023-04-11T09:08:19.309Z,17.88
2023-04-11T09:10:47.159Z,17.50
2023-04-11T09:13:26.215Z,15.60
2023-04-11T09:16:09.329Z,13.70
2023-04-11T09:18:38.859Z,19.02
2023-04-11T09:21:09.621Z,16.67
2023-04-11T09:23:38.680Z,23.80
2023-04-11T09:26:08.338Z,15.35
2023-04-11T09:28:52.741Z,16.13
2023-04-11T09:31:21.302Z,21.98
2023-04-11T09:33:57.363Z,18.92
2023-04-11T09:36:29.542Z,19.67
2023-04-11T09:38:58.312Z,18.67
2023-04-11T09:41:34.290Z,15.13
2023-04-11T09:44:02.767Z,17.50
2023-04-11T09:46:30.711Z,14.68
2023-04-11T09:48:58.158Z,18.52
2023-04-11T09:53:57.818Z,13.95
2023-04-11T09:56:28.029Z,18.00
2023-04-11T09:58:58.770Z,11.45
2023-04-11T10:01:26.174Z,13.03
2023-04-11T10:03:54.146Z,12.88
2023-04-11T10:06:34.945Z,17.88
2023-04-11T10:09:14.199Z,16.98
2023-04-11T10:11:44.514Z,13.80
2023-04-11T10:14:37.805Z,14.00
2023-04-11T10:17:12.553Z,19.13
2023-04-11T10:19:40.297Z,12.32
2023-04-11T10:22:07.691Z,14.15
2023-04-11T10:24:35.294Z,13.18
2023-04-11T10:27:04.576Z,15.40
2023-04-11T10:29:36.472Z,8.00
2023-04-11T10:32:10.632Z,7.93
2023-04-11T10:34:40.723Z,8.02
2023-04-11T10:37:09.798Z,12.40
2023-04-11T10:39:57.774Z,24.70
2023-04-11T10:42:29.245Z,11.30
2023-04-11T10:45:17.754Z,13.02
2023-04-11T10:48:13.041Z,12.32
2023-04-11T10:50:43.848Z,13.30
2023-04-11T10:53:34.219Z,9.57
2023-04-11T10:56:02.902Z,9.45
2023-04-11T10:58:40.488Z,9.98
2023-04-11T11:01:26.125Z,13.30
2023-04-11T11:04:04.431Z,9.25
2023-04-11T11:06:38.087Z,12.90
2023-04-11T11:09:23.748Z,11.05
2023-04-11T11:12:13.761Z,6.28
2023-04-11T11:14:47.528Z,7.90
2023-04-11T11:17:17.488Z,8.93
2023-04-11T11:19:47.185Z,6.47
2023-04-11T11:22:16.010Z,7.47
2023-04-11T11:24:43.471Z,9.52
2023-04-11T11:27:22.460Z,5.50
2023-04-11T11:29:50.547Z,5.47
2023-04-11T11:32:28.098Z,8.32
2023-04-11T11:34:57.541Z,6.20
2023-04-11T11:37:26.221Z,6.80
2023-04-11T11:39:53.864Z,5.10
2023-04-11T11:42:21.821Z,6.00
2023-04-11T11:44:49.563Z,8.00
2023-04-11T11:47:17.620Z,7.68
2023-04-11T11:49:47.120Z,5.40
2023-04-11T11:52:36.505Z,4.80
2023-04-11T11:55:08.724Z,4.38
2023-04-11T11:57:37.635Z,4.38
2023-04-11T12:00:06.321Z,6.15
2023-04-11T12:02:38.301Z,6.05
2023-04-11T12:05:07.022Z,6.85
2023-04-11T12:07:37.757Z,9.05
2023-04-11T12:10:08.405Z,4.87
2023-04-11T12:12:52.813Z,3.40
2023-04-11T12:15:24.401Z,5.10
2023-04-11T12:17:54.066Z,5.20
2023-04-11T12:20:26.773Z,6.13
2023-04-11T12:22:56.175Z,7.43
2023-04-11T12:25:25.951Z,12.85
2023-04-11T12:27:53.394Z,10.70
2023-04-11T12:30:20.715Z,6.55
2023-04-11T12:32:48.070Z,16.15
2023-04-11T12:35:16.074Z,11.40
2023-04-11T12:37:44.753Z,5.82
2023-04-11T12:40:12.899Z,12.43
2023-04-11T12:42:53.318Z,7.78
2023-04-11T12:45:24.044Z,8.05
2023-04-11T12:47:51.996Z,11.88
2023-04-11T12:50:19.567Z,8.50
2023-04-11T12:52:49.256Z,7.32
2023-04-11T12:55:16.705Z,9.48
2023-04-11T12:57:44.116Z,12.18
2023-04-11T13:00:12.757Z,9.05
2023-04-11T13:02:44.641Z,6.57
2023-04-11T13:05:15.303Z,10.15
2023-04-11T13:07:46.938Z,5.15
2023-04-11T13:10:18.584Z,6.95
2023-04-11T13:12:48.001Z,5.43
2023-04-11T13:15:17.248Z,6.45
2023-04-11T13:17:44.681Z,8.25
2023-04-11T13:20:12.941Z,6.72
2023-04-11T13:22:42.296Z,11.07
2023-04-11T13:25:11.032Z,7.22
2023-04-11T13:27:40.044Z,6.78
2023-04-11T13:30:10.490Z,5.03
2023-04-11T13:32:38.003Z,7.68
2023-04-11T13:35:06.473Z,8.88
2023-04-11T13:37:33.859Z,8.95
2023-04-11T13:40:01.669Z,7.10
2023-04-11T13:42:29.343Z,4.72
2023-04-11T13:44:56.869Z,6.80
2023-04-11T13:47:24.241Z,6.00
2023-04-11T13:49:51.507Z,8.93
2023-04-11T13:52:18.819Z,3.05
2023-04-11T13:54:46.594Z,5.20
2023-04-11T13:57:13.906Z,6.93
2023-04-11T13:59:41.396Z,4.82
2023-04-11T14:02:09.037Z,3.08
2023-04-11T14:04:36.687Z,3.03
2023-04-11T14:07:04.504Z,4.55
2023-04-11T14:09:32.458Z,3.65
2023-04-11T14:12:01.468Z,4.82
2023-04-11T14:14:29.349Z,4.25
2023-04-11T14:16:56.684Z,4.78
2023-04-11T14:19:25.126Z,7.93
2023-04-11T14:21:52.521Z,5.45
2023-04-11T14:24:22.179Z,5.90
2023-04-11T14:26:50.205Z,7.43
2023-04-11T14:29:17.910Z,5.60
2023-04-11T14:31:45.433Z,3.70
2023-04-11T14:34:12.817Z,4.65
2023-04-11T14:36:40.790Z,4.63
2023-04-11T14:39:08.674Z,4.15
2023-04-11T14:41:36.619Z,5.80
2023-04-11T14:44:04.324Z,6.45
2023-04-11T14:46:31.727Z,5.03
2023-04-11T14:48:59.023Z,4.82
2023-04-11T14:51:28.745Z,6.85
2023-04-11T14:53:56.801Z,2.67
2023-04-11T14:56:25.539Z,16.83
2023-04-11T14:58:53.260Z,2.00
2023-04-11T15:01:21.221Z,2.85
2023-04-11T15:03:48.931Z,3.75
2023-04-11T15:06:16.631Z,2.47
2023-04-11T15:08:43.977Z,3.88
2023-04-11T15:11:11.334Z,3.05
2023-04-11T15:13:39.117Z,4.78
2023-04-11T15:16:06.672Z,2.92
2023-04-11T15:18:35.083Z,1.90
2023-04-11T15:21:03.501Z,2.60
2023-04-11T15:23:31.661Z,10.25
2023-04-11T15:26:01.146Z,1.83
2023-04-11T15:28:34.234Z,3.60
2023-04-11T15:31:02.875Z,4.28
2023-04-11T15:33:32.051Z,9.10
2023-04-11T15:36:00.683Z,3.45
2023-04-11T15:38:28.470Z,4.47
2023-04-11T15:40:58.522Z,13.43
2023-04-11T15:43:27.152Z,5.90
2023-04-11T15:45:54.845Z,5.80
2023-04-11T15:48:22.253Z,5.78
2023-04-11T15:50:50.918Z,8.07
2023-04-11T15:53:18.558Z,1.83
2023-04-11T15:55:47.462Z,4.63
2023-04-11T15:58:15.407Z,7.80
2023-04-11T16:00:43.685Z,5.13
2023-04-11T16:03:11.629Z,3.72
2023-04-11T16:05:43.031Z,7.72
2023-04-11T16:08:11.008Z,8.63
2023-04-11T16:10:38.611Z,13.05
2023-04-11T16:13:05.984Z,19.95
2023-04-11T16:15:33.288Z,10.43
2023-04-11T16:18:00.806Z,10.20
2023-04-11T16:20:28.523Z,3.88
2023-04-11T16:22:56.356Z,4.00
2023-04-11T16:25:23.900Z,4.35
2023-04-11T16:27:51.503Z,5.43
2023-04-11T16:30:19.249Z,3.30
2023-04-11T16:32:46.642Z,3.67
2023-04-11T16:35:14.475Z,5.43
2023-04-11T16:37:42.375Z,3.63
2023-04-11T16:40:12.498Z,6.07
2023-04-11T16:42:40.419Z,2.90
2023-04-11T16:45:09.818Z,7.57
2023-04-11T16:47:37.734Z,5.68
2023-04-11T16:50:06.240Z,13.27
2023-04-11T16:52:34.110Z,3.70
2023-04-11T16:55:03.001Z,6.28
2023-04-11T16:57:33.224Z,5.45
2023-04-11T17:00:13.492Z,9.87
2023-04-11T17:02:40.958Z,10.95
2023-04-11T17:05:09.802Z,10.98
2023-04-11T17:07:37.202Z,5.75
2023-04-11T17:10:05.540Z,3.35
2023-04-11T17:12:33.836Z,5.72
2023-04-11T17:15:01.194Z,5.25
2023-04-11T17:17:28.572Z,4.90
2023-04-11T17:19:55.873Z,5.95
2023-04-11T17:22:23.277Z,5.30
2023-04-11T17:24:50.939Z,10.63
2023-04-11T17:27:19.247Z,2.65
2023-04-11T17:29:46.750Z,3.97
2023-04-11T17:32:14.663Z,6.28
2023-04-11T17:34:42.314Z,5.32
2023-04-11T17:37:10.678Z,3.05
2023-04-11T17:39:38.106Z,6.75
2023-04-11T17:42:05.645Z,4.32
2023-04-11T17:44:33.434Z,6.15
2023-04-11T17:47:00.870Z,8.13
2023-04-11T17:49:28.648Z,4.70
2023-04-11T17:51:58.910Z,11.77
2023-04-11T17:54:27.410Z,4.10
2023-04-11T17:56:56.260Z,8.38
2023-04-11T17:59:27.931Z,4.90
2023-04-11T18:01:55.908Z,5.70
2023-04-11T18:04:24.196Z,3.53
2023-04-11T18:06:51.732Z,8.52
2023-04-11T18:09:19.158Z,5.82
2023-04-11T18:11:47.143Z,11.13
2023-04-11T18:14:14.478Z,4.68
2023-04-11T18:16:42.202Z,8.13
2023-04-11T18:19:10.229Z,5.05
2023-04-11T18:21:39.111Z,4.80
2023-04-11T18:24:07.439Z,7.10
2023-04-11T18:26:35.565Z,7.45
2023-04-11T18:29:03.953Z,5.63
2023-04-11T18:31:34.928Z,12.30
2023-04-11T18:34:03.621Z,9.18
2023-04-11T18:36:32.431Z,7.95
2023-04-11T18:39:00.145Z,4.85
2023-04-11T18:41:27.687Z,6.03
2023-04-11T18:43:55.666Z,7.45
2023-04-11T18:46:23.519Z,7.25
2023-04-11T18:48:51.168Z,5.53
2023-04-11T18:51:19.602Z,9.95
2023-04-11T18:53:48.981Z,7.65
2023-04-11T18:56:16.637Z,7.50
2023-04-11T18:58:46.539Z,5.32
2023-04-11T19:01:17.377Z,6.00
2023-04-11T19:03:46.379Z,8.65
2023-04-11T19:06:14.657Z,8.70
2023-04-11T19:08:42.371Z,7.72
2023-04-11T19:11:09.745Z,8.48
2023-04-11T19:13:37.533Z,10.23
2023-04-11T19:16:05.320Z,10.00
2023-04-11T19:18:33.363Z,4.72
2023-04-11T19:21:01.325Z,5.93
2023-04-11T19:23:28.666Z,8.00
2023-04-11T19:25:56.681Z,5.28
2023-04-11T19:28:23.922Z,15.75
2023-04-11T19:30:51.874Z,34.25
2023-04-11T19:33:19.834Z,12.57
2023-04-11T19:35:48.194Z,18.42
2023-04-11T19:38:15.565Z,14.48
2023-04-11T19:40:43.055Z,14.18
2023-04-11T19:43:10.364Z,5.47
2023-04-11T19:45:37.721Z,8.57
2023-04-11T19:48:05.324Z,8.10
2023-04-11T19:50:32.650Z,6.70
2023-04-11T19:53:01.535Z,7.53
2023-04-11T19:55:29.400Z,4.82
2023-04-11T19:57:56.723Z,16.42
2023-04-11T20:00:26.574Z,12.88
2023-04-11T20:02:54.768Z,18.08
2023-04-11T20:05:22.282Z,7.45
2023-04-11T20:07:50.019Z,5.00
2023-04-11T20:10:18.214Z,11.95
2023-04-11T20:12:45.687Z,5.18
2023-04-11T20:15:13.079Z,10.05
2023-04-11T20:17:40.666Z,5.63
2023-04-11T20:20:09.036Z,13.15
2023-04-11T20:22:40.364Z,9.07
2023-04-11T20:25:07.962Z,6.97
2023-04-11T20:27:36.273Z,11.43
2023-04-11T20:30:10.559Z,5.93
2023-04-11T20:32:39.857Z,6.22
2023-04-11T20:35:09.016Z,12.60
2023-04-11T20:37:36.767Z,19.95
2023-04-11T20:40:10.628Z,6.07
2023-04-11T20:42:42.561Z,5.82
2023-04-11T20:45:12.522Z,5.82
2023-04-11T20:47:41.390Z,11.15
2023-04-11T20:50:13.227Z,9.23
2023-04-11T20:55:10.642Z,13.23
2023-04-11T20:57:38.618Z,5.53
2023-04-11T21:00:18.394Z,7.97
2023-04-11T21:02:49.964Z,7.55
2023-04-11T21:05:20.102Z,9.10
2023-04-11T21:07:47.601Z,8.75
2023-04-11T21:10:15.885Z,8.52
2023-04-11T21:12:43.324Z,7.07
2023-04-11T21:15:11.806Z,12.80
2023-04-11T21:17:39.819Z,11.27
2023-04-11T21:20:10.492Z,8.80
2023-04-11T21:22:40.186Z,6.60
2023-04-11T21:25:08.676Z,11.05
2023-04-11T21:27:36.670Z,6.75
2023-04-11T21:30:06.219Z,6.10
2023-04-11T21:32:34.134Z,5.45
2023-04-11T21:35:03.065Z,13.02
2023-04-11T21:37:31.153Z,6.35
2023-04-11T21:39:58.906Z,6.35
2023-04-11T21:42:26.874Z,17.05
2023-04-11T21:44:54.334Z,11.55
2023-04-11T21:47:22.081Z,7.63
2023-04-11T21:49:49.770Z,5.60
2023-04-11T21:52:17.028Z,7.95
2023-04-11T21:54:44.744Z,6.57
2023-04-11T21:57:12.159Z,9.85
2023-04-11T21:59:39.928Z,8.55
